Time;durP1;ratioP1;P1;durP2;ratioP2;P2;SDS_P1;SDS_P2;PMS_P1;PMS_P2;Temp;Humidity;BMP_temperature;BMP_pressure;BME280_temperature;BME280_humidity;BME280_pressure;Samples;Min_cycle;Max_cycle;Signal;HPM_P1;HPM_P2
2023/09/04 00:01:50;;;;;;;1.20;0.60;;;21.70;87.40;;;;;;5097820;28;20361;-84
2023/09/04 00:04:16;;;;;;;2.38;0.80;;;21.60;87.50;;;;;;5101963;28;20028;-84
2023/09/04 00:06:41;;;;;;;1.40;0.75;;;21.60;88.00;;;;;;5089019;28;20032;-84
2023/09/04 00:09:07;;;;;;;3.47;1.02;;;21.60;87.60;;;;;;5113597;28;20412;-83
2023/09/04 00:11:33;;;;;;;1.10;0.65;;;21.60;87.80;;;;;;5092636;28;20043;-84
2023/09/04 00:13:58;;;;;;;1.52;0.70;;;21.60;87.70;;;;;;5101694;28;20036;-85
2023/09/04 00:16:24;;;;;;;0.75;0.60;;;21.50;87.80;;;;;;5092801;28;20110;-85
2023/09/04 00:18:50;;;;;;;1.30;0.52;;;21.50;87.90;;;;;;5075471;28;20030;-85
2023/09/04 00:21:16;;;;;;;1.10;0.80;;;21.50;87.60;;;;;;5093883;28;20026;-85
2023/09/04 00:23:41;;;;;;;1.00;0.90;;;21.50;87.60;;;;;;5094827;28;20024;-85
2023/09/04 00:26:07;;;;;;;1.20;0.65;;;21.50;87.80;;;;;;5096884;28;20036;-85
2023/09/04 00:28:32;;;;;;;1.23;0.80;;;21.40;87.90;;;;;;5095949;28;20032;-86
2023/09/04 00:30:58;;;;;;;1.13;0.63;;;21.40;87.90;;;;;;5099389;28;20036;-85
2023/09/04 00:33:24;;;;;;;0.95;0.82;;;21.40;88.00;;;;;;5096119;28;20032;-85
2023/09/04 00:35:49;;;;;;;1.20;0.70;;;21.40;88.10;;;;;;5097158;28;20062;-85
2023/09/04 00:38:15;;;;;;;0.82;0.50;;;21.40;88.10;;;;;;5099538;28;20457;-85
2023/09/04 00:40:41;;;;;;;1.15;0.70;;;21.40;88.30;;;;;;5097019;28;20029;-85
2023/09/04 00:43:07;;;;;;;1.02;0.60;;;21.40;87.90;;;;;;5095919;28;20035;-85
2023/09/04 00:45:35;;;;;;;1.40;0.77;;;21.30;88.10;;;;;;5096840;28;20031;-85
2023/09/04 00:48:01;;;;;;;0.80;0.40;;;21.40;88.30;;;;;;5097101;28;20434;-85
2023/09/04 00:50:28;;;;;;;1.17;0.77;;;21.30;88.40;;;;;;5095822;28;20213;-85
2023/09/04 00:53:04;;;;;;;1.75;0.82;;;21.30;87.90;;;;;;5097223;28;20024;-85
2023/09/04 00:55:29;;;;;;;1.30;0.80;;;21.30;88.10;;;;;;5096874;28;20503;-85
2023/09/04 00:57:56;;;;;;;1.10;0.60;;;21.30;88.10;;;;;;5078623;28;20041;-85
2023/09/04 01:00:27;;;;;;;1.48;0.95;;;21.20;88.40;;;;;;5096976;28;20036;-85
2023/09/04 01:02:53;;;;;;;1.42;1.10;;;21.20;88.60;;;;;;5095616;28;20028;-85
2023/09/04 01:05:19;;;;;;;0.55;0.40;;;21.20;88.50;;;;;;5096499;28;20077;-85
2023/09/04 01:07:45;;;;;;;1.10;0.73;;;21.20;88.80;;;;;;5096690;28;20095;-85
2023/09/04 01:10:12;;;;;;;1.95;0.90;;;21.20;88.70;;;;;;5096614;28;20356;-85
2023/09/04 01:13:09;;;;;;;0.93;0.60;;;21.20;88.80;;;;;;5095832;28;20380;-85
2023/09/04 01:15:35;;;;;;;1.00;0.65;;;21.20;88.90;;;;;;5096536;28;20032;-85
2023/09/04 01:18:02;;;;;;;1.23;0.80;;;21.20;88.90;;;;;;5095350;28;20082;-85
2023/09/04 01:20:29;;;;;;;0.90;0.63;;;21.20;88.60;;;;;;5096448;28;20093;-85
2023/09/04 01:22:56;;;;;;;1.35;0.93;;;21.20;88.70;;;;;;5096391;28;20024;-85
2023/09/04 01:25:25;;;;;;;1.60;1.23;;;21.20;88.60;;;;;;5095563;28;20381;-85
2023/09/04 01:28:02;;;;;;;2.05;1.08;;;21.10;87.50;;;;;;5096286;28;20107;-85
2023/09/04 01:30:49;;;;;;;5.22;1.20;;;21.10;88.10;;;;;;5096669;28;20028;-86
2023/09/04 01:33:22;;;;;;;1.38;0.80;;;21.00;88.30;;;;;;5095996;28;20106;-86
2023/09/04 01:35:49;;;;;;;1.50;1.10;;;20.80;88.50;;;;;;5096799;28;20523;-85
2023/09/04 01:38:15;;;;;;;2.15;1.45;;;20.80;89.00;;;;;;5095111;28;20040;-86
2023/09/04 01:40:42;;;;;;;3.40;1.70;;;20.80;89.10;;;;;;5096065;28;20024;-85
2023/09/04 01:43:07;;;;;;;2.03;0.90;;;20.70;88.90;;;;;;5078046;28;20032;-85
2023/09/04 01:45:33;;;;;;;1.15;0.73;;;20.70;89.00;;;;;;5094694;28;20036;-85
2023/09/04 01:47:59;;;;;;;2.33;1.38;;;20.70;89.20;;;;;;5096854;28;20052;-85
2023/09/04 01:50:25;;;;;;;1.70;1.00;;;20.70;89.40;;;;;;5096169;28;20043;-85
2023/09/04 01:52:50;;;;;;;1.95;1.40;;;20.70;89.50;;;;;;5077684;28;20491;-84
2023/09/04 01:55:16;;;;;;;2.67;1.88;;;20.70;89.60;;;;;;5077629;28;20036;-85
2023/09/04 01:57:42;;;;;;;1.58;0.88;;;20.60;89.70;;;;;;5096022;28;20032;-85
2023/09/04 02:00:09;;;;;;;2.45;1.13;;;20.60;89.60;;;;;;5094412;28;20101;-85
2023/09/04 02:02:34;;;;;;;2.42;1.10;;;20.60;89.70;;;;;;5096193;28;20028;-85
2023/09/04 02:05:00;;;;;;;1.65;1.17;;;20.60;89.80;;;;;;5095279;28;20468;-84
2023/09/04 02:07:26;;;;;;;1.10;0.70;;;20.50;89.90;;;;;;5095507;28;20149;-84
2023/09/04 02:09:51;;;;;;;1.63;1.00;;;20.60;90.00;;;;;;5095688;28;20028;-85
2023/09/04 02:12:17;;;;;;;2.33;1.80;;;20.50;90.20;;;;;;5077233;28;20039;-86
2023/09/04 02:14:43;;;;;;;1.90;1.45;;;20.60;90.10;;;;;;5095316;28;20115;-84
2023/09/04 02:17:09;;;;;;;1.70;1.13;;;20.60;90.30;;;;;;5094049;28;20032;-85
2023/09/04 02:19:36;;;;;;;1.63;1.00;;;20.60;90.10;;;;;;5095820;28;20024;-85
2023/09/04 02:22:01;;;;;;;1.58;1.45;;;20.60;90.10;;;;;;5095155;28;20036;-85
2023/09/04 02:24:27;;;;;;;1.88;1.30;;;20.50;90.10;;;;;;5094293;28;20036;-84
2023/09/04 02:26:53;;;;;;;2.28;1.35;;;20.40;90.20;;;;;;5095573;28;20028;-84
2023/09/04 02:29:18;;;;;;;1.52;1.02;;;20.40;90.30;;;;;;5101258;28;20024;-84
2023/09/04 02:31:44;;;;;;;2.40;1.40;;;20.30;90.40;;;;;;5102366;28;20028;-84
2023/09/04 02:34:10;;;;;;;2.15;1.50;;;20.20;90.40;;;;;;5100029;28;20035;-84
2023/09/04 02:36:35;;;;;;;2.65;1.55;;;20.20;90.60;;;;;;5105449;28;20040;-84
2023/09/04 02:39:01;;;;;;;1.40;1.30;;;20.20;90.70;;;;;;5109962;28;20039;-84
2023/09/04 02:41:26;;;;;;;1.60;1.13;;;20.20;90.80;;;;;;5104438;28;20376;-84
2023/09/04 02:43:53;;;;;;;1.92;0.98;;;20.20;90.90;;;;;;5095625;28;20032;-84
2023/09/04 02:46:19;;;;;;;1.80;1.33;;;20.30;90.80;;;;;;5092775;28;20060;-85
2023/09/04 02:48:45;;;;;;;1.08;0.60;;;20.30;90.80;;;;;;5077059;28;20349;-85
2023/09/04 02:51:11;;;;;;;1.50;1.10;;;20.30;90.80;;;;;;5094968;28;20028;-84
2023/09/04 02:53:36;;;;;;;3.58;1.25;;;20.30;90.80;;;;;;5093394;28;20036;-84
2023/09/04 02:56:02;;;;;;;1.60;1.48;;;20.30;90.80;;;;;;5076395;28;20042;-84
2023/09/04 02:58:28;;;;;;;0.90;0.70;;;20.40;90.80;;;;;;5093357;28;20059;-84
2023/09/04 03:00:53;;;;;;;2.35;1.42;;;20.40;90.70;;;;;;5076438;28;20032;-84
2023/09/04 03:03:19;;;;;;;4.10;1.98;;;20.40;90.70;;;;;;5093304;28;20065;-84
2023/09/04 03:05:46;;;;;;;1.73;1.30;;;20.40;90.70;;;;;;5093232;28;20053;-85
2023/09/04 03:08:12;;;;;;;1.77;1.40;;;20.40;90.60;;;;;;5076435;28;20028;-85
2023/09/04 03:10:37;;;;;;;2.42;1.38;;;20.30;90.70;;;;;;5077036;28;20040;-85
2023/09/04 03:13:03;;;;;;;2.10;1.58;;;20.30;90.80;;;;;;5093611;28;20029;-86
2023/09/04 03:15:29;;;;;;;1.60;1.20;;;20.30;90.80;;;;;;5093048;28;20032;-85
2023/09/04 03:17:54;;;;;;;3.00;1.45;;;20.30;90.90;;;;;;5077156;28;20105;-85
2023/09/04 03:20:20;;;;;;;1.75;1.50;;;20.30;90.80;;;;;;5094011;28;20050;-84
2023/09/04 03:22:46;;;;;;;3.65;1.60;;;20.30;90.80;;;;;;5076084;28;20490;-85
2023/09/04 03:25:12;;;;;;;2.20;1.63;;;20.30;90.70;;;;;;5093829;28;20024;-84
2023/09/04 03:27:38;;;;;;;3.45;2.58;;;20.30;90.70;;;;;;5092679;28;20048;-85
2023/09/04 03:30:04;;;;;;;2.28;1.60;;;20.20;90.60;;;;;;5093129;28;20372;-85
2023/09/04 03:32:30;;;;;;;2.10;1.90;;;20.20;90.60;;;;;;5094214;28;20028;-85
2023/09/04 03:34:56;;;;;;;3.55;2.05;;;20.20;90.70;;;;;;5093433;28;20042;-85
2023/09/04 03:37:21;;;;;;;2.08;1.30;;;20.20;90.70;;;;;;5093256;28;20032;-83
2023/09/04 03:39:47;;;;;;;1.85;1.25;;;20.20;90.80;;;;;;5092867;28;20114;-86
2023/09/04 03:42:13;;;;;;;1.90;1.80;;;20.10;90.80;;;;;;5092524;28;20034;-85
2023/09/04 03:44:38;;;;;;;2.22;2.00;;;20.00;90.80;;;;;;5094184;28;20108;-85
2023/09/04 03:47:04;;;;;;;2.40;2.00;;;20.00;91.00;;;;;;5093577;28;20075;-86
2023/09/04 03:49:30;;;;;;;3.05;1.58;;;20.00;91.10;;;;;;5092636;28;20107;-85
2023/09/04 03:51:55;;;;;;;2.15;1.45;;;20.00;91.20;;;;;;5092454;28;20473;-85
2023/09/04 03:54:22;;;;;;;2.67;2.05;;;20.00;91.20;;;;;;5093170;28;20040;-85
2023/09/04 03:56:48;;;;;;;2.38;1.20;;;20.00;91.10;;;;;;5092475;28;20039;-85
2023/09/04 03:59:14;;;;;;;4.80;3.53;;;20.00;91.20;;;;;;5077925;28;20024;-86
2023/09/04 04:01:40;;;;;;;3.67;3.08;;;20.00;91.10;;;;;;5098251;28;20032;-86
2023/09/04 04:04:09;;;;;;;2.63;2.38;;;20.00;90.70;;;;;;5098199;28;20028;-85
2023/09/04 04:06:34;;;;;;;3.42;2.72;;;20.00;90.90;;;;;;5096540;28;20110;-86
2023/09/04 04:09:00;;;;;;;4.07;3.67;;;19.90;90.80;;;;;;5097508;28;20123;-86
2023/09/04 04:11:27;;;;;;;3.35;3.05;;;19.70;90.80;;;;;;5097768;28;20056;-86
2023/09/04 04:13:52;;;;;;;4.82;3.45;;;19.60;91.00;;;;;;5096420;28;20028;-85
2023/09/04 04:16:18;;;;;;;2.22;1.83;;;19.60;91.00;;;;;;5096487;28;20039;-85
2023/09/04 04:18:44;;;;;;;2.47;2.08;;;19.60;91.20;;;;;;5096286;28;20074;-85
2023/09/04 04:21:09;;;;;;;2.45;2.03;;;19.60;91.40;;;;;;5097625;28;20028;-85
2023/09/04 04:23:35;;;;;;;3.03;1.95;;;19.60;91.50;;;;;;5096527;28;20457;-85
2023/09/04 04:26:01;;;;;;;2.80;1.40;;;19.60;91.50;;;;;;5097046;28;20028;-85
2023/09/04 04:28:27;;;;;;;2.25;1.80;;;19.70;91.40;;;;;;5097701;28;20024;-86
2023/09/04 04:30:53;;;;;;;2.45;2.25;;;19.70;91.40;;;;;;5096018;28;20464;-84
2023/09/04 04:33:18;;;;;;;2.33;2.10;;;19.70;91.30;;;;;;5079278;28;20024;-85
2023/09/04 04:35:44;;;;;;;5.57;3.00;;;19.70;91.10;;;;;;5096318;28;20067;-85
2023/09/04 04:38:10;;;;;;;2.70;2.38;;;19.80;91.20;;;;;;5097077;28;20077;-84
2023/09/04 04:40:39;;;;;;;4.18;3.33;;;19.80;90.80;;;;;;5097475;28;20030;-85
2023/09/04 04:43:05;;;;;;;2.28;2.03;;;19.70;90.90;;;;;;5098724;28;20028;-84
2023/09/04 04:45:30;;;;;;;3.60;2.55;;;19.70;90.80;;;;;;5099802;28;20038;-84
2023/09/04 04:47:56;;;;;;;1.98;1.63;;;19.70;91.00;;;;;;5082298;28;20423;-84
2023/09/04 04:50:22;;;;;;;3.38;2.70;;;19.70;91.10;;;;;;5097915;28;20358;-85
2023/09/04 04:52:47;;;;;;;3.53;3.22;;;19.70;91.20;;;;;;5097140;28;20035;-83
2023/09/04 04:55:14;;;;;;;3.72;3.08;;;19.60;91.10;;;;;;5096731;28;20032;-84
2023/09/04 04:57:39;;;;;;;2.72;2.08;;;19.60;90.90;;;;;;5096865;28;20032;-86
2023/09/04 05:00:10;;;;;;;3.08;2.42;;;19.50;90.90;;;;;;5095270;28;20032;-85
2023/09/04 05:02:37;;;;;;;2.00;1.50;;;19.50;91.20;;;;;;5095571;28;20028;-84
2023/09/04 05:05:03;;;;;;;3.53;3.03;;;19.50;91.40;;;;;;5095817;28;20120;-84
2023/09/04 05:07:29;;;;;;;4.07;3.17;;;19.50;91.30;;;;;;5095884;28;20035;-84
2023/09/04 05:09:56;;;;;;;4.22;3.60;;;19.50;91.00;;;;;;5095219;28;20536;-84
2023/09/04 05:12:22;;;;;;;3.75;3.17;;;19.40;91.00;;;;;;5095910;28;20345;-85
2023/09/04 05:14:48;;;;;;;4.00;3.63;;;19.30;90.90;;;;;;5096674;28;20032;-82
2023/09/04 05:17:14;;;;;;;7.10;4.50;;;19.30;91.10;;;;;;5097198;28;20074;-84
2023/09/04 05:19:40;;;;;;;6.80;4.68;;;19.20;91.00;;;;;;5095851;28;20077;-84
2023/09/04 05:22:06;;;;;;;5.28;3.67;;;19.20;90.90;;;;;;5102659;28;20035;-85
2023/09/04 05:24:31;;;;;;;6.55;4.28;;;19.10;91.10;;;;;;5101168;28;20028;-85
2023/09/04 05:26:57;;;;;;;4.03;3.63;;;19.00;91.10;;;;;;5100790;28;20028;-84
2023/09/04 05:29:23;;;;;;;5.60;4.53;;;18.90;91.30;;;;;;5081599;28;20050;-84
2023/09/04 05:31:51;;;;;;;5.00;4.43;;;18.90;91.40;;;;;;5101937;28;20026;-85
2023/09/04 05:34:17;;;;;;;3.15;2.58;;;18.90;91.40;;;;;;5098653;28;20349;-84
2023/09/04 05:36:42;;;;;;;4.13;2.85;;;18.80;91.50;;;;;;5098775;28;20024;-85
2023/09/04 05:39:09;;;;;;;6.70;4.35;;;18.90;91.80;;;;;;5097368;28;20036;-85
2023/09/04 05:41:35;;;;;;;7.55;5.15;;;18.90;91.80;;;;;;5099170;28;20052;-85
2023/09/04 05:44:01;;;;;;;6.32;4.88;;;18.80;91.70;;;;;;5106533;28;20010;-85
2023/09/04 05:46:27;;;;;;;6.95;4.97;;;18.80;91.70;;;;;;5101633;28;20060;-85
2023/09/04 05:48:52;;;;;;;4.45;3.90;;;18.70;91.80;;;;;;5085766;28;20028;-85
2023/09/04 05:51:18;;;;;;;5.38;4.35;;;18.60;92.00;;;;;;5084255;28;20035;-85
2023/09/04 05:53:44;;;;;;;7.63;3.65;;;18.70;92.20;;;;;;5100559;28;20043;-85
2023/09/04 05:56:10;;;;;;;6.22;4.93;;;18.60;92.30;;;;;;5100324;28;20033;-84
2023/09/04 05:58:56;;;;;;;5.80;5.10;;;18.70;92.30;;;;;;5101600;28;20034;-86
2023/09/04 06:01:23;;;;;;;5.95;4.60;;;18.60;92.30;;;;;;5100897;28;20119;-85
2023/09/04 06:03:49;;;;;;;6.40;4.95;;;18.40;92.70;;;;;;5101134;28;20142;-85
2023/09/04 06:06:15;;;;;;;4.68;3.47;;;18.30;93.00;;;;;;5100846;28;20100;-84
2023/09/04 06:08:41;;;;;;;4.43;3.90;;;18.40;93.20;;;;;;5101808;28;20060;-85
2023/09/04 06:11:07;;;;;;;7.53;5.80;;;18.40;93.30;;;;;;5095701;28;20385;-83
2023/09/04 06:13:33;;;;;;;6.72;5.50;;;18.40;93.20;;;;;;5095291;28;20039;-83
2023/09/04 06:16:02;;;;;;;5.57;4.90;;;18.50;93.20;;;;;;5078718;28;20119;-85
2023/09/04 06:18:29;;;;;;;5.00;4.60;;;18.50;93.10;;;;;;5097654;28;20055;-83
2023/09/04 06:20:55;;;;;;;6.85;5.53;;;18.60;93.00;;;;;;5095054;28;20456;-83
2023/09/04 06:23:21;;;;;;;4.47;3.83;;;18.60;93.20;;;;;;5096632;28;20039;-84
2023/09/04 06:25:47;;;;;;;5.88;4.47;;;18.60;93.30;;;;;;5096456;28;20039;-85
2023/09/04 06:28:13;;;;;;;4.95;4.55;;;18.70;93.30;;;;;;5095439;28;20028;-83
2023/09/04 06:30:39;;;;;;;7.35;5.55;;;18.70;93.40;;;;;;5096760;28;20483;-83
2023/09/04 06:33:05;;;;;;;6.00;5.45;;;18.80;93.40;;;;;;5094679;28;20036;-83
2023/09/04 06:35:31;;;;;;;6.25;4.75;;;18.80;93.30;;;;;;5095250;28;20032;-84
2023/09/04 06:37:58;;;;;;;4.50;4.03;;;18.80;93.40;;;;;;5094778;28;20032;-83
2023/09/04 06:40:24;;;;;;;4.85;4.45;;;18.80;93.50;;;;;;5094548;28;20464;-84
2023/09/04 06:42:52;;;;;;;9.75;6.03;;;19.00;93.70;;;;;;5094172;28;20031;-83
2023/09/04 06:45:18;;;;;;;6.30;4.95;;;18.90;93.50;;;;;;5095814;28;20054;-84
2023/09/04 06:47:43;;;;;;;4.28;3.78;;;18.90;93.60;;;;;;5094831;28;20123;-84
2023/09/04 06:50:09;;;;;;;7.38;5.25;;;19.00;93.80;;;;;;5094384;28;20067;-84
2023/09/04 06:52:35;;;;;;;6.38;5.78;;;19.00;93.70;;;;;;5095904;28;20419;-83
2023/09/04 06:55:01;;;;;;;7.72;6.78;;;19.10;93.80;;;;;;5096205;28;20032;-83
2023/09/04 06:57:27;;;;;;;7.55;6.30;;;18.90;93.90;;;;;;5094559;28;20392;-83
2023/09/04 06:59:55;;;;;;;7.22;6.53;;;19.00;94.10;;;;;;5102233;28;20029;-84
2023/09/04 07:02:20;;;;;;;9.82;6.88;;;19.00;94.00;;;;;;5094920;28;20487;-84
2023/09/04 07:04:46;;;;;;;5.38;4.60;;;19.00;94.00;;;;;;5094183;28;20035;-84
2023/09/04 07:07:12;;;;;;;5.30;4.18;;;19.10;93.90;;;;;;5096363;28;20468;-84
2023/09/04 07:09:37;;;;;;;8.20;5.95;;;19.20;93.70;;;;;;5096445;28;20122;-83
2023/09/04 07:12:05;;;;;;;6.75;6.15;;;19.40;93.70;;;;;;5096911;28;20036;-83
2023/09/04 07:14:31;;;;;;;6.30;5.63;;;19.40;93.70;;;;;;5096897;28;20036;-82
2023/09/04 07:16:57;;;;;;;6.82;5.20;;;19.50;93.40;;;;;;5097811;28;20024;-82
2023/09/04 07:19:23;;;;;;;8.95;5.10;;;19.70;93.10;;;;;;5093117;28;20122;-81
2023/09/04 07:21:48;;;;;;;8.05;6.28;;;19.70;93.30;;;;;;5094382;28;20035;-81
2023/09/04 07:24:14;;;;;;;9.98;5.80;;;19.70;93.10;;;;;;5093793;28;20027;-81
2023/09/04 07:26:40;;;;;;;6.68;5.95;;;19.70;93.40;;;;;;5078612;28;20032;-81
2023/09/04 07:29:05;;;;;;;11.73;7.00;;;19.70;93.30;;;;;;5078922;28;20373;-80
2023/09/04 07:31:31;;;;;;;4.35;3.95;;;19.70;93.40;;;;;;5096684;28;20028;-80
2023/09/04 07:33:58;;;;;;;8.00;6.82;;;19.70;93.50;;;;;;5080151;28;20036;-79
2023/09/04 07:36:23;;;;;;;8.95;6.13;;;19.80;93.50;;;;;;5098942;28;20062;-81
2023/09/04 07:38:49;;;;;;;7.90;6.47;;;19.80;93.60;;;;;;5097287;28;20036;-81
2023/09/04 07:41:14;;;;;;;8.48;5.80;;;19.90;93.60;;;;;;5097130;28;20035;-80
2023/09/04 07:43:40;;;;;;;4.40;3.97;;;19.90;93.50;;;;;;5101228;28;20043;-79
2023/09/04 07:46:06;;;;;;;11.25;5.88;;;20.00;93.60;;;;;;5102614;28;20039;-80
2023/09/04 07:48:33;;;;;;;7.65;6.05;;;20.10;93.10;;;;;;5101444;28;20063;-80
2023/09/04 07:51:01;;;;;;;7.47;5.60;;;20.20;93.30;;;;;;5096063;28;20032;-81
2023/09/04 07:53:26;;;;;;;6.95;4.78;;;20.20;93.10;;;;;;5098213;28;20074;-81
2023/09/04 07:55:53;;;;;;;9.32;6.13;;;20.30;93.50;;;;;;5095688;28;20080;-82
2023/09/04 07:58:19;;;;;;;8.18;4.40;;;20.40;93.30;;;;;;5094369;28;20039;-81
2023/09/04 08:00:49;;;;;;;5.57;5.00;;;20.60;93.20;;;;;;5094136;28;20024;-81
2023/09/04 08:03:14;;;;;;;5.78;4.65;;;20.70;92.80;;;;;;5095225;28;20032;-80
2023/09/04 08:05:41;;;;;;;5.13;3.60;;;20.80;92.80;;;;;;5094830;28;20115;-81
2023/09/04 08:08:10;;;;;;;9.00;4.57;;;20.90;92.50;;;;;;5095356;28;20380;-82
2023/09/04 08:10:45;;;;;;;6.57;4.45;;;21.10;92.30;;;;;;5096871;28;20024;-81
2023/09/04 08:13:13;;;;;;;9.20;5.18;;;21.20;92.60;;;;;;5095775;28;20020;-81
2023/09/04 08:15:39;;;;;;;8.00;4.75;;;21.40;91.90;;;;;;5095749;28;20020;-81
2023/09/04 08:18:07;;;;;;;5.22;4.10;;;21.40;92.10;;;;;;5098086;28;20058;-81
2023/09/04 08:20:33;;;;;;;5.25;3.47;;;21.50;92.30;;;;;;5079064;28;20025;-82
2023/09/04 08:22:58;;;;;;;4.95;3.90;;;21.60;91.30;;;;;;5095884;28;20050;-81
2023/09/04 08:25:24;;;;;;;6.18;3.50;;;21.70;91.20;;;;;;5093896;28;20035;-81
2023/09/04 08:27:50;;;;;;;8.07;4.57;;;21.90;91.20;;;;;;5077348;28;20043;-81
2023/09/04 08:30:16;;;;;;;5.32;4.18;;;22.00;90.50;;;;;;5094645;28;20032;-81
2023/09/04 08:32:41;;;;;;;6.03;4.10;;;22.00;90.60;;;;;;5095899;28;20024;-81
2023/09/04 08:35:07;;;;;;;3.85;2.83;;;22.10;91.30;;;;;;5094455;28;20034;-81
2023/09/04 08:37:33;;;;;;;6.22;4.32;;;22.30;91.70;;;;;;5094802;28;20033;-80
2023/09/04 08:39:59;;;;;;;8.23;4.07;;;22.40;91.40;;;;;;5094057;28;20044;-81
2023/09/04 08:42:27;;;;;;;5.45;4.00;;;22.50;91.40;;;;;;5094792;28;20054;-81
2023/09/04 08:44:54;;;;;;;5.65;4.78;;;22.60;90.90;;;;;;5093768;28;20028;-80
2023/09/04 08:47:21;;;;;;;6.63;3.67;;;22.60;90.60;;;;;;5097628;28;20083;-81
2023/09/04 08:49:47;;;;;;;6.53;4.50;;;22.60;92.00;;;;;;5098608;28;20035;-82
2023/09/04 08:52:13;;;;;;;6.55;4.07;;;22.80;91.70;;;;;;5082406;28;20028;-81
2023/09/04 08:54:42;;;;;;;6.38;3.63;;;22.90;92.10;;;;;;5102265;28;20063;-81
2023/09/04 08:57:09;;;;;;;7.53;3.80;;;23.10;91.30;;;;;;5105052;28;20484;-82
2023/09/04 08:59:35;;;;;;;4.93;2.90;;;23.10;89.00;;;;;;5105333;28;20113;-82
2023/09/04 09:02:04;;;;;;;6.55;3.58;;;23.20;89.10;;;;;;5105042;28;20353;-82
2023/09/04 09:04:34;;;;;;;2.88;2.35;;;23.30;89.40;;;;;;5107033;28;20048;-81
2023/09/04 09:07:01;;;;;;;4.65;2.67;;;23.40;90.10;;;;;;5106674;28;20028;-82
2023/09/04 09:09:28;;;;;;;4.68;2.42;;;23.50;90.40;;;;;;5104957;28;20028;-81
2023/09/04 09:11:54;;;;;;;5.47;3.67;;;23.60;89.70;;;;;;5101789;28;20024;-80
2023/09/04 09:14:29;;;;;;;3.78;2.45;;;23.70;89.10;;;;;;5105458;28;20081;-81
2023/09/04 09:17:14;;;;;;;4.82;2.10;;;23.80;89.20;;;;;;5101025;28;20127;-81
2023/09/04 09:19:41;;;;;;;4.15;2.35;;;23.90;88.20;;;;;;5101168;28;20036;-81
2023/09/04 09:22:16;;;;;;;3.83;2.70;;;24.10;87.50;;;;;;5106254;28;20028;-81
2023/09/04 09:25:00;;;;;;;4.25;3.30;;;24.20;88.00;;;;;;5109470;28;20056;-81
2023/09/04 09:27:31;;;;;;;4.78;4.05;;;24.20;87.10;;;;;;5112334;28;20028;-81
2023/09/04 09:29:59;;;;;;;6.05;3.80;;;24.40;86.50;;;;;;5113695;28;20039;-81
2023/09/04 09:32:33;;;;;;;4.35;3.47;;;24.30;86.10;;;;;;5109430;28;20123;-82
2023/09/04 09:35:01;;;;;;;4.95;3.67;;;24.40;87.00;;;;;;5111658;28;20089;-81
2023/09/04 09:37:31;;;;;;;6.72;4.45;;;24.50;87.40;;;;;;5112555;28;20032;-80
2023/09/04 09:39:57;;;;;;;4.93;3.10;;;24.50;87.20;;;;;;5119033;28;20028;-81
2023/09/04 09:42:24;;;;;;;4.22;2.47;;;24.60;88.50;;;;;;5101595;28;20012;-81
2023/09/04 09:44:53;;;;;;;7.50;3.13;;;24.80;87.80;;;;;;5115821;28;20063;-81
2023/09/04 09:47:21;;;;;;;6.50;3.20;;;24.90;87.10;;;;;;5174488;22;20065;-79
2023/09/04 09:49:49;;;;;;;8.77;3.10;;;24.90;86.30;;;;;;5060479;28;20041;-81
2023/09/04 09:52:16;;;;;;;6.13;2.92;;;25.00;87.10;;;;;;5049709;28;20402;-81
2023/09/04 09:54:44;;;;;;;5.50;1.90;;;25.20;86.00;;;;;;5044854;28;20057;-81
2023/09/04 09:57:16;;;;;;;5.07;2.80;;;25.40;86.10;;;;;;5045011;28;20029;-81
2023/09/04 09:59:43;;;;;;;4.87;3.03;;;25.50;84.30;;;;;;5044032;28;20053;-81
2023/09/04 10:02:15;;;;;;;3.13;2.35;;;25.40;85.10;;;;;;5052515;28;20049;-81
2023/09/04 10:04:41;;;;;;;4.55;2.00;;;25.40;84.40;;;;;;5049328;28;20045;-81
2023/09/04 10:07:09;;;;;;;2.47;1.50;;;25.50;82.60;;;;;;5054030;28;20116;-81
2023/09/04 10:09:42;;;;;;;2.05;1.25;;;25.50;81.90;;;;;;5052003;28;20013;-81
2023/09/04 10:12:13;;;;;;;4.07;1.73;;;25.60;82.20;;;;;;5053136;28;20025;-81
2023/09/04 10:14:41;;;;;;;1.55;1.13;;;25.60;81.90;;;;;;5043546;28;20036;-81
2023/09/04 10:17:19;;;;;;;3.05;1.30;;;25.60;79.20;;;;;;5044416;28;20044;-82
2023/09/04 10:19:48;;;;;;;2.58;1.35;;;25.70;81.20;;;;;;5041046;28;20378;-82
2023/09/04 10:22:23;;;;;;;4.57;1.63;;;25.80;80.40;;;;;;5041143;28;20045;-82
2023/09/04 10:25:07;;;;;;;3.08;1.50;;;26.00;80.60;;;;;;5037536;28;20470;-81
2023/09/04 10:27:40;;;;;;;3.20;1.42;;;26.10;79.50;;;;;;5041180;28;20041;-82
2023/09/04 10:30:06;;;;;;;3.15;1.70;;;26.20;82.50;;;;;;5040034;28;20061;-82
2023/09/04 10:32:33;;;;;;;3.97;1.35;;;26.20;79.80;;;;;;5039794;28;20025;-82
2023/09/04 10:35:01;;;;;;;2.55;1.00;;;26.20;79.20;;;;;;5035269;28;20045;-82
2023/09/04 10:37:29;;;;;;;2.80;1.45;;;26.20;77.20;;;;;;5037685;28;20123;-82
2023/09/04 10:39:55;;;;;;;2.80;1.20;;;26.20;75.80;;;;;;5039603;28;20453;-82
2023/09/04 10:42:23;;;;;;;2.38;1.20;;;26.20;77.00;;;;;;5042361;28;20036;-80
2023/09/04 10:44:53;;;;;;;2.35;1.38;;;26.20;77.90;;;;;;5040989;28;20030;-81
2023/09/04 10:47:20;;;;;;;2.47;1.10;;;26.20;76.70;;;;;;5040045;28;20100;-81
2023/09/04 10:49:47;;;;;;;3.13;2.00;;;26.20;78.00;;;;;;5039106;28;20076;-82
2023/09/04 10:52:14;;;;;;;2.05;1.42;;;26.30;78.20;;;;;;5039381;28;20072;-81
2023/09/04 10:54:41;;;;;;;3.13;1.63;;;26.40;77.50;;;;;;5038502;28;20057;-82
2023/09/04 10:57:11;;;;;;;1.83;1.38;;;26.40;78.30;;;;;;5035913;28;20099;-82
2023/09/04 10:59:54;;;;;;;4.00;1.50;;;26.50;79.10;;;;;;5035489;28;20091;-81
2023/09/04 11:02:46;;;;;;;3.35;1.63;;;26.60;78.90;;;;;;5039582;28;20017;-82
2023/09/04 11:05:13;;;;;;;3.08;1.65;;;26.70;77.20;;;;;;5032885;28;20049;-81
2023/09/04 11:07:38;;;;;;;2.20;1.27;;;26.70;76.10;;;;;;5020065;28;20033;-81
2023/09/04 11:10:07;;;;;;;4.28;1.60;;;26.70;76.00;;;;;;5040976;28;20063;-82
2023/09/04 11:12:35;;;;;;;1.88;1.20;;;26.80;75.20;;;;;;5039426;28;20033;-81
2023/09/04 11:15:02;;;;;;;3.67;1.08;;;26.80;75.10;;;;;;5035719;28;20037;-82
2023/09/04 11:17:31;;;;;;;3.53;1.42;;;26.80;77.00;;;;;;5035669;28;20122;-81
2023/09/04 11:20:00;;;;;;;3.85;1.60;;;26.90;77.20;;;;;;5037466;28;20033;-82
2023/09/04 11:22:26;;;;;;;3.72;1.70;;;26.90;75.50;;;;;;5038277;28;20028;-81
2023/09/04 11:24:55;;;;;;;3.78;1.67;;;26.90;75.50;;;;;;5035657;28;20119;-82
2023/09/04 11:27:22;;;;;;;2.00;1.20;;;26.90;75.90;;;;;;5035981;28;20044;-82
2023/09/04 11:29:49;;;;;;;3.58;2.00;;;27.00;77.10;;;;;;5036300;28;20021;-82
2023/09/04 11:32:15;;;;;;;4.20;1.90;;;27.00;75.60;;;;;;5035463;28;20052;-82
2023/09/04 11:34:45;;;;;;;5.75;1.90;;;27.00;77.00;;;;;;5036286;28;20034;-79
2023/09/04 11:37:12;;;;;;;4.40;1.65;;;27.00;75.20;;;;;;5034626;28;20033;-81
2023/09/04 11:39:58;;;;;;;2.92;1.65;;;27.00;75.20;;;;;;5035048;28;20040;-82
2023/09/04 11:42:27;;;;;;;4.13;2.00;;;27.10;75.90;;;;;;5035305;28;20032;-82
2023/09/04 11:44:53;;;;;;;3.97;2.20;;;27.20;77.80;;;;;;5033655;28;20056;-82
2023/09/04 11:47:19;;;;;;;6.40;1.65;;;27.20;74.30;;;;;;5035582;28;20025;-82
2023/09/04 11:49:46;;;;;;;4.90;2.00;;;27.20;76.40;;;;;;5036729;28;20049;-82
2023/09/04 11:52:12;;;;;;;3.75;1.85;;;27.30;77.10;;;;;;5017484;28;20033;-81
2023/09/04 11:54:41;;;;;;;5.93;2.05;;;27.50;75.30;;;;;;5035266;28;20044;-81
2023/09/04 11:57:11;;;;;;;4.20;2.40;;;27.60;74.60;;;;;;5037363;28;20446;-81
2023/09/04 11:59:40;;;;;;;2.15;1.95;;;27.40;75.80;;;;;;5035168;28;20050;-82
2023/09/04 12:02:07;;;;;;;3.05;1.83;;;27.40;76.10;;;;;;5035942;28;20025;-83
2023/09/04 12:04:34;;;;;;;2.75;2.13;;;27.40;76.40;;;;;;5037593;28;20116;-83
2023/09/04 12:07:04;;;;;;;5.78;2.63;;;27.50;76.40;;;;;;5036912;28;20043;-83
2023/09/04 12:09:31;;;;;;;3.85;2.20;;;27.60;75.00;;;;;;5034393;28;20049;-81
2023/09/04 12:11:57;;;;;;;3.90;2.58;;;27.50;76.20;;;;;;5036708;28;20025;-81
2023/09/04 12:14:22;;;;;;;3.90;2.22;;;27.50;75.10;;;;;;5035756;28;20505;-82
2023/09/04 12:16:48;;;;;;;4.10;2.78;;;27.50;75.10;;;;;;5034897;28;20029;-82
2023/09/04 12:19:15;;;;;;;2.45;1.63;;;27.60;75.00;;;;;;5035755;28;20029;-82
2023/09/04 12:21:41;;;;;;;2.50;1.70;;;27.60;75.00;;;;;;5040691;28;20030;-82
2023/09/04 12:24:14;;;;;;;4.50;2.63;;;27.70;75.50;;;;;;5038964;28;20045;-81
2023/09/04 12:26:41;;;;;;;3.28;2.63;;;27.80;74.80;;;;;;5039595;28;20038;-83
2023/09/04 12:29:10;;;;;;;4.38;3.15;;;27.90;74.10;;;;;;5043751;28;20049;-82
2023/09/04 12:31:37;;;;;;;4.35;3.05;;;27.80;72.90;;;;;;5043561;28;20493;-81
2023/09/04 12:34:04;;;;;;;3.65;2.70;;;27.70;74.00;;;;;;5042722;28;20041;-82
2023/09/04 12:36:31;;;;;;;3.20;2.20;;;27.70;75.30;;;;;;5039965;28;20045;-82
2023/09/04 12:38:57;;;;;;;4.05;3.40;;;27.80;76.00;;;;;;5024505;28;20065;-81
2023/09/04 12:41:23;;;;;;;4.82;2.75;;;27.80;75.60;;;;;;5042305;28;20040;-82
2023/09/04 12:43:48;;;;;;;5.10;2.60;;;27.70;75.60;;;;;;5041989;28;20520;-81
2023/09/04 12:46:14;;;;;;;4.82;2.90;;;27.70;74.70;;;;;;5040912;28;20029;-81
2023/09/04 12:48:43;;;;;;;4.22;2.30;;;27.60;74.50;;;;;;5041349;28;20335;-83